createdAt,value
2022-07-29T00:01:56.783Z,47.93
2022-07-29T00:06:58.349Z,48.14
2022-07-29T00:12:01.778Z,48.65
2022-07-29T00:17:03.605Z,48.82
2022-07-29T00:22:05.245Z,49.67
2022-07-29T00:27:06.854Z,49.61
2022-07-29T00:32:08.489Z,49.98
2022-07-29T00:37:10.051Z,49.73
2022-07-29T00:42:11.894Z,48.97
2022-07-29T00:47:13.706Z,49.43
2022-07-29T00:52:17.220Z,50.48
2022-07-29T00:57:19.123Z,50.12
2022-07-29T01:02:20.754Z,50.68
2022-07-29T01:07:22.479Z,50.71
2022-07-29T01:12:26.737Z,51.02
2022-07-29T01:18:06.654Z,50.80
2022-07-29T01:23:21.972Z,52.16
2022-07-29T01:28:47.948Z,51.52
2022-07-29T01:33:58.702Z,51.61
2022-07-29T01:39:08.628Z,51.93
2022-07-29T01:44:18.684Z,52.04
2022-07-29T01:49:28.725Z,52.23
2022-07-29T01:54:36.276Z,52.96
2022-07-29T01:59:39.514Z,52.86
2022-07-29T02:04:43.850Z,52.93
2022-07-29T02:09:48.250Z,52.23
2022-07-29T02:14:53.154Z,52.16
2022-07-29T02:19:58.372Z,53.02
2022-07-29T02:25:01.263Z,53.04
2022-07-29T02:30:07.557Z,53.42
2022-07-29T02:35:10.621Z,52.84
2022-07-29T02:40:16.149Z,52.98
2022-07-29T02:45:18.108Z,53.41
2022-07-29T02:50:33.630Z,53.03
2022-07-29T02:55:43.204Z,52.66
2022-07-29T03:00:48.616Z,52.07
2022-07-29T03:05:50.621Z,52.00
2022-07-29T03:10:53.113Z,52.68
2022-07-29T03:15:55.113Z,53.08
2022-07-29T03:20:56.835Z,53.86
2022-07-29T03:25:58.506Z,53.13
2022-07-29T03:31:00.207Z,53.24
2022-07-29T03:36:03.422Z,52.95
2022-07-29T03:41:10.452Z,53.15
2022-07-29T03:46:14.515Z,53.17
2022-07-29T03:51:16.271Z,53.03
2022-07-29T03:56:21.542Z,52.88
2022-07-29T04:01:23.661Z,53.90
2022-07-29T04:06:26.698Z,53.64
2022-07-29T04:11:28.448Z,52.95
2022-07-29T04:16:30.302Z,52.81
2022-07-29T04:21:32.004Z,53.76
2022-07-29T04:26:34.190Z,53.16
2022-07-29T04:31:35.955Z,54.25
2022-07-29T04:36:37.902Z,52.94
2022-07-29T04:41:39.489Z,52.47
2022-07-29T04:46:41.307Z,52.34
2022-07-29T04:51:42.958Z,51.37
2022-07-29T04:56:44.623Z,52.79
2022-07-29T05:01:46.304Z,52.03
2022-07-29T05:06:48.005Z,51.69
2022-07-29T05:11:49.679Z,50.98
2022-07-29T05:16:52.115Z,50.19
2022-07-29T05:21:53.719Z,50.65
2022-07-29T05:26:55.349Z,50.40
2022-07-29T05:31:57.025Z,50.13
2022-07-29T05:36:58.972Z,50.41
2022-07-29T05:42:00.577Z,51.25
2022-07-29T05:47:02.135Z,49.92
2022-07-29T05:52:04.198Z,50.37
2022-07-29T05:57:06.373Z,49.94
2022-07-29T06:02:08.019Z,49.35
2022-07-29T06:07:09.703Z,48.79
2022-07-29T06:12:11.380Z,48.62
2022-07-29T06:17:13.043Z,47.61
2022-07-29T06:22:17.130Z,48.34
2022-07-29T06:27:18.710Z,46.99
2022-07-29T06:32:20.488Z,45.16
2022-07-29T06:37:24.569Z,45.58
2022-07-29T06:42:27.741Z,46.17
2022-07-29T06:47:29.380Z,46.10
2022-07-29T06:52:30.988Z,45.57
2022-07-29T06:57:32.949Z,44.19
2022-07-29T07:02:34.586Z,45.46
2022-07-29T07:07:36.392Z,45.04
2022-07-29T07:12:38.013Z,43.90
2022-07-29T07:17:39.671Z,44.90
2022-07-29T07:22:41.268Z,44.47
2022-07-29T07:27:46.136Z,44.12
2022-07-29T07:32:47.869Z,44.32
2022-07-29T07:37:49.508Z,44.21
2022-07-29T07:42:51.296Z,43.81
2022-07-29T07:47:52.892Z,43.19
2022-07-29T07:52:58.864Z,43.61
2022-07-29T07:58:00.696Z,42.17
2022-07-29T08:03:02.673Z,43.29
2022-07-29T08:08:04.582Z,41.35
2022-07-29T08:13:11.865Z,41.33
2022-07-29T08:18:14.035Z,40.91
2022-07-29T08:23:15.644Z,40.51
2022-07-29T08:28:18.414Z,40.68
2022-07-29T08:33:20.165Z,39.01
2022-07-29T08:38:22.076Z,38.00
2022-07-29T08:43:24.039Z,37.58
2022-07-29T08:48:25.846Z,38.45
2022-07-29T08:53:29.154Z,37.97
2022-07-29T08:58:36.910Z,36.63
2022-07-29T09:03:41.716Z,36.14
2022-07-29T09:08:43.865Z,35.61
2022-07-29T09:13:45.600Z,34.22
2022-07-29T09:18:47.384Z,33.86
2022-07-29T09:24:12.758Z,33.61
2022-07-29T09:29:15.578Z,34.11
2022-07-29T09:34:29.523Z,33.52
2022-07-29T09:39:45.137Z,33.26
2022-07-29T09:44:50.323Z,33.69
2022-07-29T09:49:59.141Z,33.85
2022-07-29T09:55:08.488Z,32.92
2022-07-29T10:00:15.728Z,32.68
2022-07-29T10:05:25.559Z,31.51
2022-07-29T10:10:32.901Z,30.69
2022-07-29T10:15:41.828Z,30.22
2022-07-29T10:20:43.639Z,29.16
2022-07-29T10:25:46.958Z,28.76
2022-07-29T10:30:51.457Z,29.54
2022-07-29T10:36:04.534Z,28.31
2022-07-29T10:46:57.522Z,28.40
2022-07-29T10:52:06.357Z,27.93
2022-07-29T10:57:25.761Z,29.44
2022-07-29T11:02:41.293Z,28.96
2022-07-29T11:08:19.945Z,28.21
2022-07-29T11:13:44.624Z,28.14
2022-07-29T11:19:13.871Z,27.22
2022-07-29T11:24:28.559Z,26.25
2022-07-29T11:29:33.130Z,26.86
2022-07-29T11:34:42.422Z,27.01
2022-07-29T11:39:45.565Z,25.99
2022-07-29T11:45:41.056Z,26.87
2022-07-29T11:50:37.710Z,26.42
2022-07-29T12:01:07.863Z,26.61
2022-07-29T12:06:14.974Z,26.85
2022-07-29T12:11:21.347Z,28.01
2022-07-29T12:16:25.743Z,28.47
2022-07-29T12:21:53.832Z,28.56
2022-07-29T12:27:00.208Z,27.53
2022-07-29T12:32:02.091Z,27.79
2022-07-29T12:37:04.702Z,28.71
2022-07-29T12:42:18.456Z,27.74
2022-07-29T12:47:21.105Z,28.19
2022-07-29T12:52:30.139Z,28.90
2022-07-29T12:57:32.991Z,29.91
2022-07-29T13:02:35.690Z,29.86
2022-07-29T13:07:55.820Z,30.00
2022-07-29T13:13:10.510Z,29.63
2022-07-29T13:18:32.423Z,29.72
2022-07-29T13:23:38.419Z,29.47
2022-07-29T13:28:40.998Z,29.26
2022-07-29T13:33:46.039Z,29.64
2022-07-29T13:38:47.674Z,29.16
2022-07-29T13:43:50.116Z,29.93
2022-07-29T13:48:51.923Z,28.59
2022-07-29T13:53:53.597Z,29.87
2022-07-29T13:58:55.330Z,29.33
2022-07-29T14:03:57.174Z,28.83
2022-07-29T14:08:59.173Z,29.15
2022-07-29T14:14:00.793Z,29.35
2022-07-29T14:19:02.847Z,29.23
2022-07-29T14:24:05.089Z,29.90
2022-07-29T14:29:19.318Z,29.80
2022-07-29T14:34:21.166Z,30.39
2022-07-29T14:39:26.360Z,30.33
2022-07-29T14:44:33.702Z,30.87
2022-07-29T14:49:36.382Z,30.56
2022-07-29T14:54:38.035Z,30.87
2022-07-29T14:59:39.642Z,31.35
2022-07-29T15:04:41.391Z,30.82
2022-07-29T15:09:49.831Z,31.00
2022-07-29T15:14:51.829Z,31.45
2022-07-29T15:19:53.502Z,31.01
2022-07-29T15:24:55.129Z,30.50
2022-07-29T15:29:56.780Z,30.04
2022-07-29T15:34:58.464Z,29.54
2022-07-29T15:40:00.465Z,30.43
2022-07-29T15:45:03.884Z,30.63
2022-07-29T15:50:12.842Z,29.99
2022-07-29T15:55:15.688Z,30.38
2022-07-29T16:00:18.091Z,30.90
2022-07-29T16:05:19.946Z,31.80
2022-07-29T16:10:21.687Z,32.02
2022-07-29T16:15:23.397Z,31.44
2022-07-29T16:20:25.434Z,31.94
2022-07-29T16:25:50.189Z,32.75
2022-07-29T16:30:51.262Z,33.17
2022-07-29T16:35:53.199Z,32.83
2022-07-29T16:40:54.845Z,33.47
2022-07-29T16:45:56.546Z,33.73
2022-07-29T16:50:58.222Z,33.44
2022-07-29T16:55:59.842Z,33.47
2022-07-29T17:01:01.642Z,33.14
2022-07-29T17:06:03.487Z,33.20
2022-07-29T17:11:05.105Z,33.63
2022-07-29T17:16:06.755Z,33.39
2022-07-29T17:21:08.323Z,33.60
2022-07-29T17:26:10.023Z,33.30
2022-07-29T17:31:12.019Z,33.10
2022-07-29T17:36:25.473Z,33.29
2022-07-29T17:41:27.628Z,33.10
2022-07-29T17:46:29.641Z,33.25
2022-07-29T17:51:31.315Z,33.96
2022-07-29T17:56:33.071Z,33.83
2022-07-29T18:01:35.101Z,34.01
2022-07-29T18:06:37.266Z,33.70
2022-07-29T18:11:38.879Z,34.07
2022-07-29T18:16:41.000Z,37.20
2022-07-29T18:21:54.568Z,38.17
2022-07-29T18:26:57.288Z,38.85
2022-07-29T18:31:59.896Z,38.93
2022-07-29T18:37:01.723Z,39.66
2022-07-29T18:42:04.404Z,39.86
2022-07-29T18:47:06.177Z,40.62
2022-07-29T18:52:08.280Z,40.95
2022-07-29T18:57:55.051Z,41.39
2022-07-29T19:02:31.770Z,42.22
2022-07-29T19:07:33.747Z,42.80
2022-07-29T19:12:35.431Z,42.81
2022-07-29T19:17:37.071Z,43.53
2022-07-29T19:22:38.792Z,43.59
2022-07-29T19:27:41.225Z,43.62
2022-07-29T19:32:42.818Z,44.15
2022-07-29T19:37:44.552Z,43.70
2022-07-29T19:42:48.229Z,44.35
2022-07-29T19:47:50.753Z,45.14
2022-07-29T19:52:53.022Z,45.02
2022-07-29T19:57:54.841Z,45.48
2022-07-29T20:02:57.410Z,45.54
2022-07-29T20:07:59.447Z,45.24
2022-07-29T20:13:01.034Z,45.71
2022-07-29T20:18:02.703Z,46.49
2022-07-29T20:23:04.329Z,46.51
2022-07-29T20:28:06.129Z,46.21
2022-07-29T20:33:08.143Z,46.00
2022-07-29T20:38:09.816Z,45.90
2022-07-29T20:43:11.475Z,46.46
2022-07-29T20:48:13.873Z,47.23
2022-07-29T20:53:16.714Z,46.16
2022-07-29T20:58:19.740Z,45.13
2022-07-29T21:03:21.322Z,44.66
2022-07-29T21:08:22.977Z,44.45
2022-07-29T21:13:25.541Z,44.73
2022-07-29T21:18:30.226Z,45.12
2022-07-29T21:23:32.355Z,45.64
2022-07-29T21:28:38.506Z,46.20
2022-07-29T21:33:42.006Z,46.04
2022-07-29T21:38:43.627Z,46.65
2022-07-29T21:43:46.139Z,46.43
2022-07-29T21:48:47.798Z,46.88
2022-07-29T21:53:50.578Z,46.56
2022-07-29T21:58:55.833Z,47.13
2022-07-29T22:03:57.677Z,48.04
2022-07-29T22:08:59.283Z,48.10
2022-07-29T22:14:00.922Z,48.08
2022-07-29T22:19:03.917Z,48.42
2022-07-29T22:24:06.026Z,48.79
2022-07-29T22:29:08.562Z,49.30
2022-07-29T22:34:13.148Z,49.69
2022-07-29T22:39:16.160Z,49.54
2022-07-29T22:44:17.972Z,50.19
2022-07-29T22:49:19.681Z,50.48
2022-07-29T22:54:21.334Z,50.94
2022-07-29T22:59:22.962Z,51.21
2022-07-29T23:04:25.055Z,51.34
2022-07-29T23:09:26.682Z,51.11
2022-07-29T23:14:28.239Z,50.98
2022-07-29T23:19:29.924Z,50.83
2022-07-29T23:24:31.520Z,50.86
2022-07-29T23:29:36.661Z,51.06
2022-07-29T23:34:38.544Z,51.58
2022-07-29T23:39:40.223Z,52.36
2022-07-29T23:44:41.811Z,55.57
2022-07-29T23:49:43.647Z,57.91
2022-07-29T23:54:45.400Z,59.94
2022-07-29T23:59:47.066Z,62.53
